Time;durP1;ratioP1;P1;durP2;ratioP2;P2;SDS_P1;SDS_P2;PMS_P1;PMS_P2;Temp;Humidity;BMP_temperature;BMP_pressure;BME280_temperature;BME280_humidity;BME280_pressure;Samples;Min_cycle;Max_cycle;Signal;HPM_P1;HPM_P2
2022/07/03 00:01:58;;;;;;;4.63;4.22;;;15.90;99.90;;;;;;5087670;28;20434;-82
2022/07/03 00:04:24;;;;;;;4.97;4.40;;;15.90;99.90;;;;;;5087864;28;20408;-82
2022/07/03 00:06:49;;;;;;;5.18;4.47;;;15.70;99.90;;;;;;5089784;28;20885;-81
2022/07/03 00:09:15;;;;;;;6.10;4.15;;;15.70;99.90;;;;;;5089271;28;20380;-81
2022/07/03 00:11:42;;;;;;;6.43;4.50;;;15.60;99.90;;;;;;5088591;28;21001;-82
2022/07/03 00:14:08;;;;;;;5.60;4.43;;;15.60;99.90;;;;;;5088851;28;20422;-82
2022/07/03 00:16:33;;;;;;;4.75;4.35;;;15.50;99.90;;;;;;5089039;28;20373;-82
2022/07/03 00:18:59;;;;;;;4.40;4.07;;;15.40;99.90;;;;;;5087216;28;20415;-82
2022/07/03 00:21:29;;;;;;;5.07;4.30;;;15.40;99.90;;;;;;5088539;28;20958;-82
2022/07/03 00:24:08;;;;;;;5.80;4.63;;;15.30;99.90;;;;;;5089014;28;20372;-82
2022/07/03 00:26:38;;;;;;;4.50;4.10;;;15.20;99.90;;;;;;5088321;28;20401;-82
2022/07/03 00:29:06;;;;;;;5.97;5.03;;;15.20;99.90;;;;;;5088260;28;20380;-81
2022/07/03 00:31:32;;;;;;;6.10;4.82;;;15.20;99.90;;;;;;5088722;28;20399;-82
2022/07/03 00:34:02;;;;;;;5.80;4.60;;;15.10;99.90;;;;;;5087424;28;20896;-82
2022/07/03 00:36:36;;;;;;;5.20;4.68;;;15.00;99.90;;;;;;5090153;28;20376;-81
2022/07/03 00:39:03;;;;;;;5.53;4.93;;;15.10;99.90;;;;;;5089778;28;20379;-81
2022/07/03 00:41:31;;;;;;;4.95;4.40;;;15.00;99.90;;;;;;5088466;28;20373;-81
2022/07/03 00:43:57;;;;;;;5.35;4.85;;;15.00;99.90;;;;;;5087577;28;20377;-82
2022/07/03 00:46:24;;;;;;;5.32;4.55;;;15.00;99.90;;;;;;5088278;28;20424;-81
2022/07/03 00:48:52;;;;;;;6.32;4.90;;;15.00;99.90;;;;;;5090282;28;20783;-82
2022/07/03 00:51:22;;;;;;;5.23;4.73;;;14.90;99.90;;;;;;5088500;28;20384;-81
2022/07/03 00:53:55;;;;;;;5.53;5.00;;;14.90;99.90;;;;;;5090651;28;20372;-81
2022/07/03 00:56:26;;;;;;;5.20;4.70;;;14.90;99.90;;;;;;5080776;28;20453;-81
2022/07/03 00:59:00;;;;;;;5.85;4.97;;;14.90;99.90;;;;;;5088600;28;20498;-81
2022/07/03 01:01:31;;;;;;;5.43;4.90;;;14.90;99.90;;;;;;5070138;28;20407;-81
2022/07/03 01:04:06;;;;;;;5.93;4.72;;;14.80;99.90;;;;;;5070675;28;20374;-82
2022/07/03 01:06:39;;;;;;;5.60;5.10;;;14.80;99.90;;;;;;5068228;28;21206;-81
2022/07/03 01:09:06;;;;;;;5.70;5.20;;;14.80;99.90;;;;;;5073840;28;20515;-81
2022/07/03 01:11:39;;;;;;;5.30;4.68;;;14.80;99.90;;;;;;5071879;28;20400;-82
2022/07/03 01:14:32;;;;;;;5.15;4.65;;;14.70;99.90;;;;;;5090633;28;20396;-81
2022/07/03 01:17:11;;;;;;;6.10;5.50;;;14.70;99.90;;;;;;5090854;28;20388;-81
2022/07/03 01:19:44;;;;;;;6.65;5.47;;;14.60;99.90;;;;;;5092596;28;20414;-81
2022/07/03 01:22:27;;;;;;;5.60;5.10;;;14.70;99.90;;;;;;5092872;28;20387;-81
2022/07/03 01:25:13;;;;;;;5.70;5.20;;;14.60;99.90;;;;;;5093297;28;20483;-81
2022/07/03 01:28:00;;;;;;;6.00;5.50;;;14.60;99.90;;;;;;5073539;28;20363;-81
2022/07/03 01:30:32;;;;;;;6.22;5.30;;;14.50;99.90;;;;;;5073471;28;20733;-81
2022/07/03 01:32:59;;;;;;;5.93;5.32;;;14.50;99.90;;;;;;5072888;28;20492;-82
2022/07/03 01:35:40;;;;;;;5.50;5.00;;;14.40;99.90;;;;;;5072324;28;20401;-82
2022/07/03 01:38:11;;;;;;;6.40;5.30;;;14.50;99.90;;;;;;5072884;28;20370;-81
2022/07/03 01:40:40;;;;;;;7.07;5.32;;;14.50;99.90;;;;;;5073497;28;21272;-82
2022/07/03 01:43:09;;;;;;;6.13;5.47;;;14.40;99.90;;;;;;5071844;28;20409;-81
2022/07/03 01:45:47;;;;;;;6.22;5.68;;;14.40;99.90;;;;;;5072661;28;20433;-81
2022/07/03 01:48:14;;;;;;;5.93;5.43;;;14.30;99.90;;;;;;5072152;28;20732;-81
2022/07/03 01:50:41;;;;;;;6.00;5.50;;;14.30;99.90;;;;;;5070687;28;20387;-81
2022/07/03 01:53:10;;;;;;;5.93;5.43;;;14.30;99.90;;;;;;5071407;28;20477;-81
2022/07/03 01:55:40;;;;;;;6.15;5.65;;;14.30;99.90;;;;;;5075489;28;20750;-80
2022/07/03 01:58:06;;;;;;;6.78;5.72;;;14.20;99.90;;;;;;5092299;28;20372;-80
2022/07/03 02:00:42;;;;;;;6.90;5.90;;;14.20;99.90;;;;;;5090893;28;20484;-81
2022/07/03 02:03:08;;;;;;;5.73;5.20;;;14.10;99.90;;;;;;5089781;28;20989;-82
2022/07/03 02:05:45;;;;;;;6.00;5.50;;;14.10;99.90;;;;;;5091500;28;20874;-82
2022/07/03 02:08:15;;;;;;;5.85;5.35;;;14.10;99.90;;;;;;5091513;28;20519;-82
2022/07/03 02:10:46;;;;;;;5.63;5.07;;;14.10;99.90;;;;;;5091293;28;20383;-81
2022/07/03 02:13:36;;;;;;;6.43;5.80;;;14.10;99.90;;;;;;5090395;28;20492;-82
2022/07/03 02:16:02;;;;;;;7.10;6.40;;;14.10;99.90;;;;;;5082670;28;20475;-81
2022/07/03 02:18:32;;;;;;;6.18;5.57;;;14.00;99.90;;;;;;5071314;28;20800;-82
2022/07/03 02:21:10;;;;;;;6.70;6.00;;;14.10;99.90;;;;;;5070314;28;20491;-81
2022/07/03 02:23:46;;;;;;;6.30;5.75;;;14.00;99.90;;;;;;5070473;28;20391;-81
2022/07/03 02:26:17;;;;;;;6.75;5.85;;;14.00;99.90;;;;;;5081425;28;20697;-82
2022/07/03 02:28:54;;;;;;;6.95;6.18;;;14.00;99.90;;;;;;5091018;28;20381;-82
2022/07/03 02:31:23;;;;;;;7.40;6.68;;;14.00;99.90;;;;;;5091214;28;20376;-82
2022/07/03 02:33:55;;;;;;;7.40;6.70;;;13.90;99.90;;;;;;5089663;28;20750;-81
2022/07/03 02:36:23;;;;;;;6.77;6.07;;;13.90;99.90;;;;;;5090241;28;20470;-81
2022/07/03 02:38:53;;;;;;;7.03;6.43;;;14.00;99.90;;;;;;5089679;28;20712;-82
2022/07/03 02:41:43;;;;;;;6.55;5.88;;;13.90;99.90;;;;;;5090450;28;20384;-81
2022/07/03 02:44:42;;;;;;;8.27;6.10;;;13.80;99.90;;;;;;5090259;28;20388;-83
2022/07/03 02:47:14;;;;;;;7.20;6.50;;;13.80;99.90;;;;;;5073560;28;20396;-83
2022/07/03 02:50:05;;;;;;;7.22;6.53;;;13.80;99.90;;;;;;5089972;28;20424;-83
2022/07/03 02:52:44;;;;;;;7.22;6.53;;;13.80;99.90;;;;;;5090283;28;20392;-82
2022/07/03 02:55:27;;;;;;;6.78;6.18;;;13.80;99.90;;;;;;5089178;28;21171;-80
2022/07/03 02:58:41;;;;;;;7.50;6.70;;;13.80;99.90;;;;;;5090598;28;20737;-83
2022/07/03 03:01:38;;;;;;;6.63;6.13;;;13.80;99.90;;;;;;5089049;28;20756;-83
2022/07/03 03:04:14;;;;;;;6.93;6.32;;;13.70;99.90;;;;;;5091121;28;20450;-80
2022/07/03 03:06:48;;;;;;;7.10;6.40;;;13.80;99.90;;;;;;5090782;28;20416;-83
2022/07/03 03:09:21;;;;;;;6.97;6.28;;;13.70;99.90;;;;;;5085137;28;20410;-83
2022/07/03 03:11:48;;;;;;;6.93;6.35;;;13.80;99.90;;;;;;5069129;28;20393;-83
2022/07/03 03:14:19;;;;;;;7.00;6.40;;;13.80;99.90;;;;;;5069415;28;20385;-83
2022/07/03 03:16:50;;;;;;;7.20;6.57;;;13.90;99.90;;;;;;5071621;28;20883;-83
2022/07/03 03:19:21;;;;;;;6.82;6.22;;;13.90;99.90;;;;;;5072808;28;20374;-83
2022/07/03 03:22:12;;;;;;;6.20;5.80;;;13.90;99.90;;;;;;5070823;28;20406;-83
2022/07/03 03:24:38;;;;;;;6.97;6.38;;;13.90;99.90;;;;;;5085402;28;20751;-82
2022/07/03 03:27:05;;;;;;;6.30;5.80;;;13.90;99.90;;;;;;5089641;28;20392;-82
2022/07/03 03:29:31;;;;;;;8.05;6.55;;;13.90;99.90;;;;;;5089394;28;20385;-82
2022/07/03 03:31:57;;;;;;;6.93;6.22;;;13.90;99.90;;;;;;5088561;28;20509;-82
2022/07/03 03:34:24;;;;;;;6.50;5.88;;;13.90;99.90;;;;;;5089333;28;20404;-82
2022/07/03 03:36:49;;;;;;;7.03;6.35;;;13.90;99.90;;;;;;5089646;28;20373;-82
2022/07/03 03:39:16;;;;;;;6.40;5.90;;;13.90;99.90;;;;;;5089823;28;20810;-82
2022/07/03 03:41:41;;;;;;;7.03;6.35;;;13.90;99.90;;;;;;5089811;28;20372;-82
2022/07/03 03:44:07;;;;;;;6.10;5.50;;;13.80;99.90;;;;;;5089297;28;20758;-81
2022/07/03 03:46:33;;;;;;;7.00;6.30;;;13.90;99.90;;;;;;5089941;28;20376;-82
2022/07/03 03:48:59;;;;;;;6.15;5.60;;;13.90;99.90;;;;;;5089854;28;20395;-82
2022/07/03 03:51:25;;;;;;;7.50;6.13;;;13.90;99.90;;;;;;5089894;28;20372;-82
2022/07/03 03:53:50;;;;;;;7.28;6.10;;;13.90;99.90;;;;;;5088149;28;20727;-84
2022/07/03 03:56:16;;;;;;;6.77;6.17;;;14.00;99.90;;;;;;5087793;28;20491;-82
2022/07/03 03:58:43;;;;;;;6.82;6.20;;;14.10;99.90;;;;;;5089598;28;20387;-82
2022/07/03 04:01:10;;;;;;;6.10;5.60;;;14.10;99.90;;;;;;5089481;28;20822;-82
2022/07/03 04:03:36;;;;;;;6.70;6.00;;;14.20;99.90;;;;;;5089163;28;20854;-82
2022/07/03 04:06:03;;;;;;;6.45;5.75;;;14.20;99.90;;;;;;5087907;28;20396;-82
2022/07/03 04:08:29;;;;;;;6.72;6.03;;;14.20;99.90;;;;;;5087777;28;20460;-82
2022/07/03 04:10:55;;;;;;;6.80;6.20;;;14.20;99.90;;;;;;5090374;28;20926;-81
2022/07/03 04:13:21;;;;;;;6.60;6.00;;;14.30;99.90;;;;;;5089085;28;20894;-82
2022/07/03 04:15:48;;;;;;;6.35;5.85;;;14.40;99.90;;;;;;5090913;28;20481;-81
2022/07/03 04:18:14;;;;;;;6.00;5.50;;;14.50;99.90;;;;;;5091291;28;20373;-82
2022/07/03 04:20:40;;;;;;;6.78;5.65;;;14.60;99.90;;;;;;5093589;28;20460;-81
2022/07/03 04:23:06;;;;;;;6.40;5.80;;;14.70;99.90;;;;;;5093558;28;20395;-81
2022/07/03 04:25:32;;;;;;;5.80;5.30;;;14.30;99.90;;;;;;5092426;28;20837;-81
2022/07/03 04:27:58;;;;;;;6.95;6.13;;;14.80;99.90;;;;;;5091625;28;20430;-82
2022/07/03 04:30:23;;;;;;;6.40;5.80;;;14.90;99.90;;;;;;5092126;28;20372;-81
2022/07/03 04:32:49;;;;;;;6.38;5.72;;;15.00;99.90;;;;;;5090502;28;20405;-82
2022/07/03 04:35:15;;;;;;;6.00;5.53;;;15.30;99.90;;;;;;5089905;28;20447;-82
2022/07/03 04:37:42;;;;;;;5.53;5.03;;;15.50;99.90;;;;;;5091659;28;20422;-81
2022/07/03 04:40:08;;;;;;;5.88;5.28;;;15.60;99.90;;;;;;5089412;28;20426;-82
2022/07/03 04:42:34;;;;;;;5.25;4.75;;;15.80;99.90;;;;;;5086293;28;20395;-81
2022/07/03 04:45:00;;;;;;;5.40;4.90;;;16.10;99.90;;;;;;5089492;28;21038;-82
2022/07/03 04:47:26;;;;;;;5.78;5.20;;;16.30;99.90;;;;;;5087357;28;20455;-82
2022/07/03 04:49:52;;;;;;;5.38;4.50;;;16.70;99.90;;;;;;5072562;28;20868;-83
2022/07/03 04:52:17;;;;;;;4.90;4.50;;;17.20;99.90;;;;;;5068240;28;20378;-81
2022/07/03 04:54:44;;;;;;;5.15;4.40;;;17.60;99.90;;;;;;5068313;28;20798;-82
2022/07/03 04:57:09;;;;;;;4.70;4.35;;;18.00;99.90;;;;;;5083413;28;20456;-82
2022/07/03 04:59:35;;;;;;;4.70;4.30;;;18.30;99.90;;;;;;5086614;28;20912;-82
2022/07/03 05:02:01;;;;;;;4.55;4.13;;;18.60;99.90;;;;;;5086865;28;20373;-81
2022/07/03 05:04:26;;;;;;;4.17;3.77;;;19.00;99.90;;;;;;5087392;28;20445;-83
2022/07/03 05:06:52;;;;;;;4.05;3.65;;;19.70;99.90;;;;;;5086614;28;20399;-82
2022/07/03 05:09:21;;;;;;;6.40;3.70;;;20.40;99.90;;;;;;5087942;28;20380;-82
2022/07/03 05:11:46;;;;;;;5.82;3.90;;;20.80;99.90;;;;;;5086505;28;20390;-82
2022/07/03 05:14:12;;;;;;;4.50;3.72;;;21.00;99.90;;;;;;5086601;28;20468;-82
2022/07/03 05:16:38;;;;;;;3.60;3.30;;;21.00;99.90;;;;;;5088103;28;20424;-83
2022/07/03 05:19:04;;;;;;;3.88;3.58;;;21.30;99.90;;;;;;5087241;28;20727;-82
2022/07/03 05:21:30;;;;;;;3.90;3.50;;;;;;;;;;5088601;28;20375;-82
2022/07/03 05:23:56;;;;;;;7.10;3.97;;;;;;;;;;5088056;28;20391;-83
2022/07/03 05:26:22;;;;;;;4.25;3.60;;;;;;;;;;5084660;28;20866;-81
2022/07/03 05:28:48;;;;;;;4.03;3.37;;;;;;;;;;5087592;28;20379;-82
2022/07/03 05:31:14;;;;;;;3.95;3.10;;;;;;;;;;5087516;28;20842;-82
2022/07/03 05:33:40;;;;;;;4.63;3.42;;;;;;;;;;5087681;28;20501;-82
2022/07/03 05:36:06;;;;;;;4.20;3.42;;;;;;;;;;5086605;28;20400;-83
2022/07/03 05:41:17;;;;;;;4.00;3.43;;;;;;;;;;5087457;28;20854;-82
2022/07/03 05:43:43;;;;;;;3.47;3.17;;;;;;;;;;5087665;28;20384;-83
2022/07/03 05:46:09;;;;;;;4.00;3.55;;;;;;;;;;5087611;28;20376;-82
2022/07/03 05:48:35;;;;;;;3.97;3.33;;;;;;;;;;5086518;28;20481;-83
2022/07/03 05:51:01;;;;;;;5.68;3.45;;;;;;;;;;5086794;28;20412;-83
2022/07/03 05:53:27;;;;;;;5.32;3.60;;;;;;;;;;5087615;28;20369;-83
2022/07/03 05:55:53;;;;;;;3.80;3.38;;;;;;;;;;5090548;28;21182;-83
2022/07/03 05:58:19;;;;;;;7.80;3.60;;;;;;;;;;5071489;28;20389;-81
2022/07/03 06:00:46;;;;;;;5.05;3.22;;;;;;;;;;5070046;28;21169;-82
2022/07/03 06:03:12;;;;;;;5.05;3.10;;;;;;;;;;5072171;28;20443;-84
2022/07/03 06:05:38;;;;;;;4.35;3.25;;;;;;;;;;5072545;28;20382;-82
2022/07/03 06:08:04;;;;;;;3.38;3.00;;;;;;;;;;5070016;28;20382;-82
2022/07/03 06:10:31;;;;;;;3.58;3.10;;;;;;;;;;5071577;28;20372;-82
2022/07/03 06:12:57;;;;;;;4.50;3.13;;;;;;;;;;5070220;28;20500;-82
2022/07/03 06:15:24;;;;;;;4.05;2.90;;;;;;;;;;5070066;28;20500;-83
2022/07/03 06:17:50;;;;;;;3.60;2.70;;;;;;;;;;5071375;28;20378;-83
2022/07/03 06:20:16;;;;;;;2.93;2.60;;;;;;;;;;5069929;28;20476;-82
2022/07/03 06:22:42;;;;;;;3.90;2.47;;;;;;;;;;5070604;28;20378;-82
2022/07/03 06:25:08;;;;;;;3.33;2.60;;;;;;;;;;5073080;28;20374;-81
2022/07/03 06:27:34;;;;;;;3.75;2.63;;;24.60;99.40;;;;;;5087129;28;20440;-82
2022/07/03 06:30:02;;;;;;;2.97;2.38;;;;;;;;;;5071691;28;20900;-83
2022/07/03 06:32:29;;;;;;;3.63;2.70;;;;;;;;;;5070878;28;20481;-83
2022/07/03 06:34:55;;;;;;;3.60;2.85;;;;;;;;;;5071056;28;20566;-83
2022/07/03 06:37:21;;;;;;;3.07;2.40;;;25.60;96.30;;;;;;5070785;28;20370;-83
2022/07/03 06:39:47;;;;;;;3.75;2.42;;;25.70;96.10;;;;;;5084093;28;20387;-83
2022/07/03 06:42:13;;;;;;;6.50;2.60;;;25.70;94.50;;;;;;5089736;28;20381;-83
2022/07/03 06:44:39;;;;;;;4.50;2.22;;;25.70;95.70;;;;;;5091515;28;20388;-83
2022/07/03 06:47:04;;;;;;;4.22;2.50;;;25.70;95.40;;;;;;5091968;28;20394;-84
2022/07/03 06:49:32;;;;;;;4.50;2.30;;;25.70;95.00;;;;;;5092007;28;20380;-83
2022/07/03 06:51:58;;;;;;;2.53;2.30;;;25.90;95.40;;;;;;5079858;28;20386;-83
2022/07/03 06:54:24;;;;;;;4.97;2.15;;;26.10;94.60;;;;;;5071601;28;20728;-84
2022/07/03 06:56:53;;;;;;;2.70;2.33;;;;;;;;;;5084883;28;20408;-83
2022/07/03 06:59:18;;;;;;;3.87;2.30;;;26.70;93.80;;;;;;5080761;28;20395;-83
2022/07/03 07:01:44;;;;;;;3.33;2.22;;;26.80;93.40;;;;;;5071157;28;20382;-84
2022/07/03 07:04:10;;;;;;;2.40;2.20;;;27.10;93.30;;;;;;5071120;28;20423;-82
2022/07/03 07:06:35;;;;;;;3.20;2.13;;;27.40;92.30;;;;;;5073965;28;20891;-84
2022/07/03 07:09:02;;;;;;;5.75;2.38;;;27.50;91.60;;;;;;5069448;28;20431;-82
2022/07/03 07:11:27;;;;;;;3.22;2.20;;;27.90;91.60;;;;;;5069896;28;20389;-83
2022/07/03 07:13:53;;;;;;;2.83;1.80;;;27.90;91.60;;;;;;5068998;28;20386;-84
2022/07/03 07:16:19;;;;;;;2.47;2.00;;;;;;;;;;5068906;28;20414;-83
2022/07/03 07:18:45;;;;;;;3.47;2.20;;;28.40;99.90;;;;;;5070374;28;20381;-84
2022/07/03 07:21:11;;;;;;;2.28;2.08;;;28.40;90.00;;;;;;5069668;28;20416;-81
2022/07/03 07:23:37;;;;;;;3.03;2.00;;;28.40;99.90;;;;;;5072154;28;20389;-83
2022/07/03 07:26:03;;;;;;;2.20;1.90;;;28.50;99.90;;;;;;5077894;28;20762;-85
2022/07/03 07:28:30;;;;;;;3.22;2.10;;;;;;;;;;5088944;28;20788;-83
2022/07/03 07:30:57;;;;;;;2.80;2.30;;;27.90;99.90;;;;;;5088648;28;20399;-83
2022/07/03 07:33:23;;;;;;;1.83;1.73;;;28.10;99.90;;;;;;5089549;28;20434;-83
2022/07/03 07:35:49;;;;;;;3.70;2.30;;;28.20;97.20;;;;;;5089635;28;20396;-84
2022/07/03 07:38:16;;;;;;;3.03;2.35;;;28.20;96.50;;;;;;5089755;28;20878;-83
2022/07/03 07:40:41;;;;;;;2.45;2.25;;;28.20;89.90;;;;;;5089735;28;20388;-84
2022/07/03 07:43:09;;;;;;;2.50;2.27;;;28.10;99.90;;;;;;5090486;28;20398;-83
2022/07/03 07:45:35;;;;;;;2.53;1.80;;;28.20;99.90;;;;;;5090808;28;20377;-83
2022/07/03 07:48:01;;;;;;;4.63;2.28;;;;;;;;;;5090127;28;20404;-83
2022/07/03 07:50:27;;;;;;;3.47;2.10;;;;;;;;;;5089779;28;20373;-84
2022/07/03 07:52:54;;;;;;;3.17;2.30;;;;;;;;;;5090550;28;20467;-83
2022/07/03 07:55:20;;;;;;;3.55;2.45;;;27.80;88.50;;;;;;5083982;28;20414;-83
2022/07/03 07:57:47;;;;;;;3.08;2.20;;;27.90;90.00;;;;;;5088955;28;20385;-82
2022/07/03 08:00:16;;;;;;;3.53;2.30;;;27.90;88.50;;;;;;5089862;28;20870;-85
2022/07/03 08:05:37;;;;;;;4.10;2.10;;;27.90;85.20;;;;;;5075930;28;20450;-83
2022/07/03 08:08:11;;;;;;;5.63;2.47;;;27.50;86.20;;;;;;5070159;28;20395;-83
2022/07/03 08:10:44;;;;;;;6.15;2.80;;;27.50;86.70;;;;;;5072545;28;20393;-84
2022/07/03 08:13:12;;;;;;;7.63;2.42;;;27.60;89.20;;;;;;5069814;28;20408;-83
2022/07/03 08:15:38;;;;;;;3.40;2.22;;;27.70;86.50;;;;;;5070191;28;20398;-82
2022/07/03 08:18:04;;;;;;;7.95;2.60;;;27.70;86.50;;;;;;5067894;28;20402;-84
2022/07/03 08:20:30;;;;;;;6.97;2.60;;;27.60;85.90;;;;;;5069675;28;20374;-85
2022/07/03 08:22:57;;;;;;;2.83;2.10;;;27.40;85.20;;;;;;5070040;28;20382;-82
2022/07/03 08:25:23;;;;;;;2.60;2.20;;;27.40;84.70;;;;;;5086609;28;20399;-83
2022/07/03 08:27:49;;;;;;;5.07;2.40;;;27.30;85.60;;;;;;5087945;28;20412;-82
2022/07/03 08:30:17;;;;;;;3.67;2.30;;;27.20;85.60;;;;;;5088754;28;20430;-85
2022/07/03 08:32:47;;;;;;;3.50;2.17;;;27.20;84.60;;;;;;5088192;28;20483;-82
2022/07/03 08:35:13;;;;;;;2.50;2.10;;;27.40;87.30;;;;;;5088915;28;20436;-83
2022/07/03 08:37:42;;;;;;;4.93;2.50;;;27.60;86.30;;;;;;5089041;28;20400;-83
2022/07/03 08:40:09;;;;;;;8.40;2.88;;;27.90;97.70;;;;;;5077996;28;20406;-84
2022/07/03 08:42:39;;;;;;;2.35;2.13;;;27.80;97.80;;;;;;5068487;28;20382;-83
2022/07/03 08:45:07;;;;;;;3.33;2.00;;;27.90;88.50;;;;;;5074164;28;20390;-83
2022/07/03 08:47:36;;;;;;;2.72;2.42;;;27.90;86.60;;;;;;5076822;28;20460;-84
2022/07/03 08:50:02;;;;;;;3.22;2.30;;;27.80;87.60;;;;;;5075872;28;20397;-83
2022/07/03 08:52:28;;;;;;;2.65;2.00;;;27.80;86.90;;;;;;5084055;28;20467;-85
2022/07/03 08:54:54;;;;;;;2.42;2.22;;;27.70;83.00;;;;;;5077403;28;20432;-84
2022/07/03 08:57:20;;;;;;;2.45;2.00;;;27.80;85.00;;;;;;5082941;28;20456;-83
2022/07/03 08:59:52;;;;;;;5.30;2.10;;;27.80;83.00;;;;;;5083009;28;20399;-85
2022/07/03 09:02:18;;;;;;;2.05;1.90;;;27.90;84.50;;;;;;5083235;28;20390;-83
2022/07/03 09:04:45;;;;;;;3.55;2.00;;;28.00;81.70;;;;;;5082909;28;20387;-84
2022/07/03 09:07:13;;;;;;;2.30;2.00;;;28.00;82.10;;;;;;5081490;28;20438;-85
2022/07/03 09:09:39;;;;;;;6.43;2.45;;;28.10;81.00;;;;;;5083835;28;20398;-84
2022/07/03 09:12:06;;;;;;;3.28;1.95;;;28.10;82.30;;;;;;5085165;28;20933;-85
2022/07/03 09:14:32;;;;;;;2.42;1.90;;;28.10;80.60;;;;;;5082601;28;20465;-84
2022/07/03 09:17:01;;;;;;;2.80;2.03;;;28.10;82.40;;;;;;5078008;28;20405;-85
2022/07/03 09:19:47;;;;;;;2.83;1.90;;;28.30;80.80;;;;;;5078875;28;20477;-84
2022/07/03 09:22:28;;;;;;;2.50;2.05;;;28.40;83.50;;;;;;5078612;28;20390;-84
2022/07/03 09:25:15;;;;;;;2.40;1.85;;;28.40;80.90;;;;;;5073091;28;20497;-83
2022/07/03 09:27:53;;;;;;;3.53;1.90;;;28.50;80.20;;;;;;5081917;28;20394;-84
2022/07/03 09:30:19;;;;;;;4.32;1.80;;;28.40;81.40;;;;;;5084263;28;20393;-83
2022/07/03 09:32:47;;;;;;;3.20;1.75;;;28.50;80.30;;;;;;5087850;27;20392;-84
2022/07/03 09:35:16;;;;;;;4.07;1.90;;;28.60;80.80;;;;;;5083441;28;20466;-84
2022/07/03 09:37:52;;;;;;;3.88;1.80;;;28.70;99.70;;;;;;5091321;28;20478;-83
2022/07/03 09:40:19;;;;;;;2.58;1.92;;;28.90;99.90;;;;;;5076280;28;20914;-83
2022/07/03 09:43:05;;;;;;;2.45;2.03;;;28.90;99.90;;;;;;5075145;28;20891;-85
2022/07/03 09:45:51;;;;;;;3.50;1.90;;;;;;;;;;5082497;28;20440;-83
2022/07/03 09:48:38;;;;;;;4.32;1.70;;;;;;;;;;5080200;28;20387;-84
2022/07/03 09:51:13;;;;;;;2.43;1.73;;;;;;;;;;5084010;28;20420;-84
2022/07/03 09:53:51;;;;;;;3.05;1.83;;;;;;;;;;5084730;28;20472;-83
2022/07/03 09:56:18;;;;;;;2.90;2.30;;;;;;;;;;5080701;28;20405;-85
2022/07/03 09:59:10;;;;;;;2.10;1.90;;;29.40;80.90;;;;;;5077511;28;20381;-84
2022/07/03 10:01:45;;;;;;;2.40;1.85;;;;;;;;;;5074030;28;20417;-83
2022/07/03 10:04:15;;;;;;;3.08;2.10;;;;;;;;;;5092098;28;20388;-85
2022/07/03 10:06:57;;;;;;;2.55;2.08;;;;;;;;;;5088623;28;20383;-85
2022/07/03 10:09:25;;;;;;;2.22;1.85;;;;;;;;;;5082629;28;20440;-84
2022/07/03 10:11:51;;;;;;;2.83;1.80;;;;;;;;;;5087556;28;20386;-84
2022/07/03 10:14:18;;;;;;;1.98;1.80;;;;;;;;;;5087911;28;20502;-84
2022/07/03 10:16:47;;;;;;;2.22;1.90;;;;;;;;;;5080300;28;20394;-85
2022/07/03 10:19:18;;;;;;;2.63;1.77;;;;;;;;;;5086947;28;20400;-83
2022/07/03 10:21:48;;;;;;;2.20;1.80;;;;;;;;;;5081709;28;20381;-84
2022/07/03 10:24:14;;;;;;;3.25;1.90;;;;;;;;;;5085473;28;20398;-83
2022/07/03 10:26:40;;;;;;;2.97;1.80;;;;;;;;;;5090218;28;20364;-83
2022/07/03 10:29:07;;;;;;;2.78;1.67;;;;;;;;;;5073460;28;20897;-83
2022/07/03 10:31:33;;;;;;;3.78;1.65;;;;;;;;;;5075098;28;20385;-83
2022/07/03 10:34:00;;;;;;;3.00;1.80;;;;;;;;;;5082835;28;20431;-83
2022/07/03 10:36:26;;;;;;;2.40;1.75;;;;;;;;;;5086929;28;20466;-83
2022/07/03 10:38:55;;;;;;;1.70;1.60;;;;;;;;;;5085524;28;20421;-83
2022/07/03 10:46:54;;;;;;;2.38;1.80;;;;;;;;;;5086700;28;20804;-83
2022/07/03 10:49:21;;;;;;;2.35;1.63;;;;;;;;;;5082837;28;20369;-83
2022/07/03 10:51:50;;;;;;;2.70;2.00;;;;;;;;;;5087370;28;20391;-83
2022/07/03 10:54:20;;;;;;;2.28;1.55;;;;;;;;;;5082978;28;20384;-83
2022/07/03 10:56:58;;;;;;;3.13;1.80;;;;;;;;;;5082148;28;20422;-83
2022/07/03 10:59:45;;;;;;;1.67;1.58;;;;;;;;;;5085851;28;20389;-83
2022/07/03 11:02:22;;;;;;;2.03;1.83;;;;;;;;;;5081080;28;20386;-84
2022/07/03 11:05:03;;;;;;;2.80;1.60;;;;;;;;;;5091633;28;20380;-83
2022/07/03 11:07:30;;;;;;;1.83;1.52;;;;;;;;;;5091849;28;20393;-84
2022/07/03 11:10:14;;;;;;;2.00;1.52;;;;;;;;;;5096964;28;20383;-84
2022/07/03 11:12:56;;;;;;;1.95;1.70;;;;;;;;;;5091252;28;20915;-83
2022/07/03 11:15:35;;;;;;;3.45;1.77;;;;;;;;;;5097028;28;20970;-83
2022/07/03 11:18:24;;;;;;;2.63;1.60;;;;;;;;;;5090334;28;20483;-84
2022/07/03 11:20:50;;;;;;;3.93;1.70;;;;;;;;;;5083111;28;20401;-82
2022/07/03 11:23:19;;;;;;;3.45;1.50;;;;;;;;;;5078776;28;20531;-82
2022/07/03 11:25:49;;;;;;;3.30;1.60;;;;;;;;;;5081330;28;20458;-84
2022/07/03 11:28:34;;;;;;;3.17;1.90;;;;;;;;;;5084603;28;20427;-83
2022/07/03 11:31:10;;;;;;;3.50;1.50;;;;;;;;;;5091494;28;20412;-86
2022/07/03 11:33:51;;;;;;;4.40;1.55;;;;;;;;;;5077297;28;20398;-84
2022/07/03 11:36:19;;;;;;;3.57;1.60;;;;;;;;;;5082389;28;20410;-83
2022/07/03 11:38:58;;;;;;;2.72;1.70;;;;;;;;;;5081504;28;20392;-85
2022/07/03 11:41:24;;;;;;;3.55;1.77;;;;;;;;;;5079560;28;20380;-84
2022/07/03 11:43:53;;;;;;;2.53;1.83;;;29.50;99.90;;;;;;5076730;28;20400;-83
2022/07/03 11:46:21;;;;;;;2.10;1.70;;;29.80;99.90;;;;;;5082416;28;20810;-83
2022/07/03 11:48:47;;;;;;;2.40;1.55;;;29.80;99.40;;;;;;5096393;27;20400;-84
2022/07/03 11:51:14;;;;;;;2.77;1.70;;;30.00;99.90;;;;;;5079301;28;20788;-84
2022/07/03 11:53:40;;;;;;;2.30;1.60;;;30.10;99.80;;;;;;5075456;28;20853;-85
2022/07/03 11:56:12;;;;;;;2.05;1.60;;;30.00;99.90;;;;;;5077390;28;20466;-84
2022/07/03 11:58:48;;;;;;;2.60;1.63;;;30.10;99.90;;;;;;5080436;28;20907;-83
2022/07/03 12:01:26;;;;;;;4.50;1.80;;;30.10;99.90;;;;;;5094075;28;20392;-84
2022/07/03 12:03:52;;;;;;;2.15;1.83;;;30.00;99.90;;;;;;5092099;28;20423;-86
2022/07/03 12:06:20;;;;;;;1.83;1.40;;;30.00;99.90;;;;;;5089227;28;20377;-83
2022/07/03 12:08:49;;;;;;;3.15;1.48;;;;;;;;;;5097788;28;20466;-83
2022/07/03 12:11:16;;;;;;;2.17;1.65;;;;;;;;;;5090358;28;20375;-83
2022/07/03 12:13:43;;;;;;;2.08;1.52;;;;;;;;;;5095985;28;20962;-84
2022/07/03 12:16:12;;;;;;;3.03;1.52;;;;;;;;;;5087360;28;20894;-84
2022/07/03 12:18:58;;;;;;;2.65;1.60;;;;;;;;;;5089244;27;20368;-85
2022/07/03 12:21:24;;;;;;;1.95;1.45;;;;;;;;;;5087685;28;20404;-84
2022/07/03 12:23:51;;;;;;;1.90;1.40;;;;;;;;;;5080876;28;20460;-82
2022/07/03 12:26:34;;;;;;;1.80;1.47;;;;;;;;;;5084706;28;20372;-85
2022/07/03 12:29:19;;;;;;;2.83;1.48;;;30.30;69.80;;;;;;5084565;28;20380;-84
2022/07/03 12:31:46;;;;;;;1.70;1.60;;;30.30;72.80;;;;;;5079842;28;20446;-84
2022/07/03 12:34:13;;;;;;;2.15;1.50;;;30.30;73.90;;;;;;5074313;28;20398;-85
2022/07/03 12:36:40;;;;;;;1.90;1.60;;;30.30;73.80;;;;;;5072817;28;20400;-83
2022/07/03 12:39:06;;;;;;;2.20;1.70;;;30.20;74.30;;;;;;5078110;28;20381;-82
2022/07/03 12:41:32;;;;;;;1.75;1.65;;;30.30;79.40;;;;;;5079746;28;20473;-86
2022/07/03 12:43:59;;;;;;;2.07;1.87;;;30.20;96.70;;;;;;5093138;28;20420;-84
2022/07/03 12:46:33;;;;;;;1.65;1.50;;;;;;;;;;5092895;28;20797;-85
2022/07/03 12:49:01;;;;;;;2.25;1.45;;;;;;;;;;5077783;28;20413;-85
2022/07/03 12:51:39;;;;;;;1.70;1.60;;;;;;;;;;5079304;28;20379;-83
2022/07/03 12:54:05;;;;;;;3.80;1.58;;;;;;;;;;5076673;28;20444;-84
2022/07/03 12:56:31;;;;;;;1.50;1.40;;;;;;;;;;5079284;28;20404;-84
2022/07/03 13:01:41;;;;;;;1.60;1.50;;;31.10;70.90;;;;;;5082692;28;20483;-85
2022/07/03 13:04:08;;;;;;;2.50;1.60;;;31.20;73.70;;;;;;5095774;28;20462;-85
2022/07/03 13:06:34;;;;;;;2.35;1.63;;;31.20;72.20;;;;;;5085338;28;20854;-86
2022/07/03 13:09:04;;;;;;;2.07;1.70;;;31.10;71.90;;;;;;5086292;28;20437;-85
2022/07/03 13:11:41;;;;;;;2.45;1.60;;;31.00;72.70;;;;;;5088590;28;20746;-86
2022/07/03 13:14:17;;;;;;;2.83;1.83;;;30.70;73.20;;;;;;5086253;28;20900;-86
2022/07/03 13:16:45;;;;;;;2.08;1.60;;;30.50;75.40;;;;;;5088013;28;20465;-84
2022/07/03 13:19:14;;;;;;;2.33;1.60;;;30.30;72.90;;;;;;5086026;28;20732;-87
2022/07/03 13:21:40;;;;;;;1.90;1.48;;;30.50;74.70;;;;;;5087355;28;20445;-84
2022/07/03 13:24:07;;;;;;;4.10;1.90;;;30.50;74.30;;;;;;5087083;28;20368;-85
2022/07/03 13:26:33;;;;;;;3.97;1.80;;;30.50;76.50;;;;;;5086978;28;20387;-86
2022/07/03 13:28:59;;;;;;;3.22;1.58;;;30.40;74.90;;;;;;5088016;28;20380;-86
2022/07/03 13:31:26;;;;;;;2.05;1.42;;;30.60;74.70;;;;;;5088199;28;20445;-83
2022/07/03 13:33:52;;;;;;;1.83;1.60;;;30.90;72.50;;;;;;5086011;28;20395;-83
2022/07/03 13:36:18;;;;;;;1.90;1.50;;;31.00;73.40;;;;;;5090393;28;20412;-84
2022/07/03 13:38:44;;;;;;;1.88;1.52;;;30.90;72.70;;;;;;5087060;28;20376;-83
2022/07/03 13:41:10;;;;;;;2.03;1.52;;;30.70;72.30;;;;;;5086653;28;20437;-85
2022/07/03 13:43:36;;;;;;;3.10;1.70;;;30.60;70.50;;;;;;5089189;28;20384;-85
2022/07/03 13:46:02;;;;;;;1.70;1.60;;;30.40;71.70;;;;;;5090764;28;20388;-85